Time;durP1;ratioP1;P1;durP2;ratioP2;P2;SDS_P1;SDS_P2;PMS_P1;PMS_P2;Temp;Humidity;BMP_temperature;BMP_pressure;BME280_temperature;BME280_humidity;BME280_pressure;Samples;Min_cycle;Max_cycle;Signal;HPM_P1;HPM_P2
2022/05/12 00:02:22;;;;;;;3.92;1.67;;;18.70;52.00;;;;;;5054416;28;20041;-80
2022/05/12 00:04:47;;;;;;;3.10;1.40;;;18.70;52.20;;;;;;5038012;28;20236;-80
2022/05/12 00:07:13;;;;;;;3.58;1.70;;;18.60;52.20;;;;;;5036041;28;20037;-81
2022/05/12 00:09:39;;;;;;;3.30;1.73;;;18.50;52.40;;;;;;5040712;28;20232;-81
2022/05/12 00:12:06;;;;;;;3.03;1.67;;;18.50;52.50;;;;;;5037520;28;20029;-81
2022/05/12 00:14:31;;;;;;;3.13;1.87;;;18.40;52.60;;;;;;5032537;28;20042;-81
2022/05/12 00:16:57;;;;;;;2.83;1.70;;;18.30;52.70;;;;;;5040593;28;20029;-81
2022/05/12 00:19:27;;;;;;;2.85;1.60;;;18.20;52.70;;;;;;5023332;28;20527;-81
2022/05/12 00:21:54;;;;;;;2.88;1.65;;;18.20;53.60;;;;;;5040534;28;20040;-81
2022/05/12 00:24:20;;;;;;;3.47;1.50;;;18.10;53.10;;;;;;5061202;28;20032;-82
2022/05/12 00:26:46;;;;;;;3.05;1.88;;;18.10;53.20;;;;;;5061327;28;20033;-80
2022/05/12 00:29:13;;;;;;;4.35;1.83;;;18.00;53.50;;;;;;5048227;28;20036;-81
2022/05/12 00:31:41;;;;;;;3.25;1.85;;;17.90;53.70;;;;;;5043079;28;20045;-80
2022/05/12 00:34:08;;;;;;;4.37;2.00;;;17.90;54.20;;;;;;5046599;28;20487;-80
2022/05/12 00:36:35;;;;;;;3.60;1.70;;;17.80;54.40;;;;;;5029343;28;20028;-80
2022/05/12 00:39:02;;;;;;;3.83;1.60;;;17.80;54.30;;;;;;5062782;28;20105;-80
2022/05/12 00:41:27;;;;;;;2.97;2.00;;;17.70;54.30;;;;;;5042496;28;20431;-80
2022/05/12 00:44:02;;;;;;;3.30;1.90;;;17.70;54.50;;;;;;5047964;28;20037;-80
2022/05/12 00:46:31;;;;;;;4.35;1.90;;;17.70;54.80;;;;;;5042833;28;20073;-80
2022/05/12 00:49:22;;;;;;;3.83;1.98;;;17.60;54.80;;;;;;5033540;28;20037;-80
2022/05/12 00:52:11;;;;;;;3.35;1.90;;;17.60;55.40;;;;;;5044157;28;20882;-80
2022/05/12 00:54:49;;;;;;;7.30;2.03;;;17.50;56.50;;;;;;5056307;28;20032;-80
2022/05/12 00:57:32;;;;;;;4.78;2.08;;;17.50;55.40;;;;;;5064900;28;20032;-80
2022/05/12 00:59:59;;;;;;;3.25;1.65;;;17.40;55.10;;;;;;5071182;28;20032;-80
2022/05/12 01:02:27;;;;;;;3.95;2.08;;;17.40;54.90;;;;;;5057631;28;20392;-80
2022/05/12 01:04:57;;;;;;;4.93;1.95;;;17.30;55.20;;;;;;5038149;28;20098;-81
2022/05/12 01:07:23;;;;;;;4.10;1.93;;;17.30;55.80;;;;;;5050873;28;20052;-80
2022/05/12 01:09:48;;;;;;;3.78;1.85;;;17.30;55.50;;;;;;5042413;28;20055;-80
2022/05/12 01:12:14;;;;;;;2.97;1.90;;;17.30;55.70;;;;;;5043144;28;20028;-80
2022/05/12 01:14:40;;;;;;;3.93;2.10;;;17.30;55.70;;;;;;5048972;28;20054;-80
2022/05/12 01:17:06;;;;;;;4.40;1.92;;;17.30;55.80;;;;;;5040992;28;20056;-81
2022/05/12 01:19:35;;;;;;;3.28;1.70;;;17.30;55.90;;;;;;5037571;28;20206;-80
2022/05/12 01:22:02;;;;;;;3.07;1.80;;;17.30;56.20;;;;;;5032418;28;20032;-80
2022/05/12 01:24:39;;;;;;;2.58;1.70;;;17.30;56.20;;;;;;5061815;28;20017;-80
2022/05/12 01:27:18;;;;;;;3.22;1.80;;;17.30;57.20;;;;;;5052967;28;20238;-80
2022/05/12 01:29:56;;;;;;;4.68;2.03;;;17.30;56.20;;;;;;5041419;28;20028;-80
2022/05/12 01:32:23;;;;;;;4.28;2.10;;;17.30;56.40;;;;;;5068628;28;20619;-80
2022/05/12 01:34:49;;;;;;;4.90;2.13;;;17.30;56.60;;;;;;5027652;28;20469;-80
2022/05/12 01:37:15;;;;;;;4.53;1.90;;;17.30;56.60;;;;;;5047828;28;20036;-80
2022/05/12 01:39:41;;;;;;;4.05;2.22;;;17.30;56.60;;;;;;5066195;28;20033;-81
2022/05/12 01:42:09;;;;;;;4.80;2.47;;;17.20;56.60;;;;;;5041841;28;20551;-80
2022/05/12 01:44:36;;;;;;;5.35;2.20;;;17.20;56.90;;;;;;5045686;28;20033;-80
2022/05/12 01:47:03;;;;;;;5.28;2.70;;;17.20;56.90;;;;;;5058204;28;20132;-80
2022/05/12 01:49:28;;;;;;;3.90;2.45;;;17.20;57.00;;;;;;5031526;28;20025;-80
2022/05/12 01:51:56;;;;;;;4.45;2.42;;;17.20;57.00;;;;;;5035716;28;20043;-80
2022/05/12 01:54:23;;;;;;;4.43;2.43;;;17.20;57.30;;;;;;5030615;28;20117;-80
2022/05/12 01:56:49;;;;;;;4.93;2.40;;;17.20;57.30;;;;;;5030775;28;20032;-80
2022/05/12 01:59:16;;;;;;;4.75;2.47;;;17.20;57.30;;;;;;5044128;28;20071;-80
2022/05/12 02:01:41;;;;;;;4.47;2.50;;;17.20;57.30;;;;;;5059001;28;20086;-80
2022/05/12 02:04:07;;;;;;;5.23;2.40;;;17.20;57.30;;;;;;5023935;28;21352;-80
2022/05/12 02:06:33;;;;;;;5.57;2.70;;;17.10;57.10;;;;;;5059650;28;20047;-81
2022/05/12 02:08:59;;;;;;;4.87;2.43;;;17.10;57.20;;;;;;5028481;28;20940;-80
2022/05/12 02:11:25;;;;;;;5.43;2.70;;;17.00;57.10;;;;;;5023560;28;20120;-80
2022/05/12 02:13:51;;;;;;;4.60;2.58;;;17.00;57.20;;;;;;5054422;28;20107;-80
2022/05/12 02:16:17;;;;;;;5.33;2.63;;;16.90;57.30;;;;;;5024721;28;20258;-80
2022/05/12 02:18:43;;;;;;;5.47;2.50;;;16.90;57.50;;;;;;5039543;28;20064;-80
2022/05/12 02:21:09;;;;;;;5.07;2.67;;;16.90;57.80;;;;;;5032281;28;20136;-80
2022/05/12 02:23:35;;;;;;;6.07;2.53;;;16.80;58.00;;;;;;5037729;28;20044;-80
2022/05/12 02:26:00;;;;;;;4.47;2.78;;;16.80;58.10;;;;;;5041239;28;20044;-80
2022/05/12 02:28:26;;;;;;;5.93;2.90;;;16.90;58.30;;;;;;5043001;28;20033;-80
2022/05/12 02:30:52;;;;;;;5.55;3.03;;;16.90;58.50;;;;;;5047962;28;20044;-80
2022/05/12 02:33:17;;;;;;;5.73;3.30;;;16.90;58.50;;;;;;5022828;28;20417;-80
2022/05/12 02:35:44;;;;;;;6.32;3.17;;;16.90;58.70;;;;;;5051260;28;20033;-80
2022/05/12 02:38:10;;;;;;;5.37;3.03;;;16.90;58.70;;;;;;5060039;28;20166;-80
2022/05/12 02:40:36;;;;;;;6.30;3.47;;;16.90;58.90;;;;;;5039290;28;20036;-80
2022/05/12 02:43:02;;;;;;;6.85;3.40;;;16.90;59.00;;;;;;5034887;28;20106;-80
2022/05/12 02:45:28;;;;;;;7.60;3.50;;;16.90;59.10;;;;;;5043187;28;20044;-80
2022/05/12 02:47:55;;;;;;;6.47;3.20;;;16.90;59.30;;;;;;5051586;28;20056;-80
2022/05/12 02:50:21;;;;;;;5.68;3.00;;;16.80;59.30;;;;;;5034595;28;21156;-81
2022/05/12 02:52:47;;;;;;;6.57;3.05;;;16.80;59.30;;;;;;5058425;28;20076;-80
2022/05/12 02:55:13;;;;;;;5.70;2.60;;;16.80;59.30;;;;;;5038289;28;20763;-79
2022/05/12 02:57:39;;;;;;;8.05;2.55;;;16.80;59.40;;;;;;5042184;28;20127;-80
2022/05/12 03:00:07;;;;;;;5.65;2.30;;;16.80;59.50;;;;;;5025881;28;20032;-80
2022/05/12 03:02:33;;;;;;;6.50;2.63;;;16.80;59.70;;;;;;5027066;28;20752;-80
2022/05/12 03:04:59;;;;;;;5.10;2.50;;;16.80;59.70;;;;;;5041286;28;20060;-80
2022/05/12 03:07:24;;;;;;;5.60;2.70;;;16.80;59.80;;;;;;5057737;28;20067;-80
2022/05/12 03:09:50;;;;;;;4.43;2.40;;;16.80;59.80;;;;;;5043121;28;20667;-80
2022/05/12 03:12:16;;;;;;;5.28;2.45;;;16.80;59.90;;;;;;5042715;28;20451;-80
2022/05/12 03:14:41;;;;;;;5.83;2.40;;;16.80;60.00;;;;;;5057453;28;20043;-80
2022/05/12 03:17:07;;;;;;;7.13;2.30;;;16.80;60.60;;;;;;5027356;28;20149;-80
2022/05/12 03:19:33;;;;;;;6.72;2.20;;;16.80;60.20;;;;;;5031848;28;20051;-80
2022/05/12 03:21:59;;;;;;;6.00;2.40;;;16.80;60.10;;;;;;5057493;28;20032;-80
2022/05/12 03:24:25;;;;;;;4.82;2.22;;;16.80;60.30;;;;;;5065119;28;20396;-80
2022/05/12 03:26:50;;;;;;;4.07;2.07;;;16.80;60.20;;;;;;5043157;28;20044;-80
2022/05/12 03:29:16;;;;;;;4.83;2.07;;;16.80;60.20;;;;;;5049411;28;20032;-80
2022/05/12 03:31:42;;;;;;;4.82;1.85;;;16.80;60.30;;;;;;5042278;28;20039;-80
2022/05/12 03:34:08;;;;;;;4.07;1.98;;;16.90;60.20;;;;;;5069963;28;20340;-79
2022/05/12 03:36:35;;;;;;;4.90;2.00;;;16.90;60.30;;;;;;5053344;28;20492;-79
2022/05/12 03:39:03;;;;;;;6.45;2.20;;;16.90;60.20;;;;;;5054265;28;20043;-80
2022/05/12 03:41:30;;;;;;;5.97;2.33;;;16.90;60.40;;;;;;5038191;28;20077;-80
2022/05/12 03:46:40;;;;;;;4.10;2.03;;;16.90;60.50;;;;;;5047697;28;20037;-79
2022/05/12 03:49:05;;;;;;;4.53;1.87;;;16.80;60.40;;;;;;5025121;28;20309;-79
2022/05/12 03:51:31;;;;;;;6.03;1.97;;;16.80;60.50;;;;;;5045465;28;20031;-80
2022/05/12 03:53:57;;;;;;;5.07;2.10;;;16.80;60.40;;;;;;5032512;28;20101;-80
2022/05/12 03:56:22;;;;;;;5.40;1.77;;;16.80;60.40;;;;;;5043999;28;20047;-80
2022/05/12 03:58:48;;;;;;;3.95;1.90;;;16.70;60.40;;;;;;5062132;28;20052;-79
2022/05/12 04:01:13;;;;;;;3.23;1.70;;;16.80;60.60;;;;;;5053261;28;20044;-80
2022/05/12 04:03:41;;;;;;;3.35;1.73;;;16.70;60.60;;;;;;5028439;28;20045;-80
2022/05/12 04:06:07;;;;;;;4.50;1.85;;;16.70;60.60;;;;;;5050265;28;20123;-80
2022/05/12 04:08:33;;;;;;;5.03;1.80;;;16.70;60.70;;;;;;5037032;28;20457;-80
2022/05/12 04:11:00;;;;;;;3.03;1.63;;;16.70;60.70;;;;;;5031159;28;20039;-79
2022/05/12 04:13:26;;;;;;;4.53;1.80;;;16.70;60.90;;;;;;5031288;28;20477;-81
2022/05/12 04:15:53;;;;;;;4.47;1.88;;;16.70;60.90;;;;;;5055561;28;20221;-79
2022/05/12 04:18:19;;;;;;;4.63;1.88;;;16.70;60.90;;;;;;5060388;28;20196;-80
2022/05/12 04:20:44;;;;;;;4.20;1.60;;;16.70;60.80;;;;;;5048199;28;20032;-80
2022/05/12 04:23:10;;;;;;;5.30;1.70;;;16.60;60.90;;;;;;5053912;28;20497;-79
2022/05/12 04:25:36;;;;;;;3.63;1.67;;;16.60;61.10;;;;;;5058975;28;20048;-79
2022/05/12 04:28:03;;;;;;;5.07;1.80;;;16.60;60.90;;;;;;5041013;28;20048;-80
2022/05/12 04:30:30;;;;;;;5.80;1.77;;;16.60;61.00;;;;;;5042235;28;20071;-80
2022/05/12 04:35:09;;;;;;;3.40;1.57;;;16.60;61.30;;;;;;5052885;28;20024;-80
2022/05/12 04:35:41;;;;;;;4.90;1.60;;;16.50;61.00;;;;;;5047599;28;20392;-80
2022/05/12 04:38:07;;;;;;;5.78;1.83;;;16.50;61.10;;;;;;5043343;28;20217;-80
2022/05/12 04:40:32;;;;;;;5.33;2.10;;;16.60;61.10;;;;;;5035905;28;20040;-80
2022/05/12 04:42:59;;;;;;;5.43;1.60;;;16.60;61.30;;;;;;5051602;28;20036;-80
2022/05/12 04:45:28;;;;;;;5.10;1.50;;;16.60;61.40;;;;;;5052702;28;20059;-80
2022/05/12 04:47:54;;;;;;;4.30;1.50;;;16.50;61.10;;;;;;5048707;28;20048;-80
2022/05/12 04:50:23;;;;;;;3.65;1.60;;;16.60;61.00;;;;;;5027380;28;20485;-79
2022/05/12 04:52:49;;;;;;;7.15;1.90;;;16.50;61.30;;;;;;5022479;28;20036;-80
2022/05/12 04:55:16;;;;;;;4.93;1.80;;;16.50;61.00;;;;;;5052775;28;20442;-79
2022/05/12 04:57:44;;;;;;;4.10;1.70;;;16.50;61.10;;;;;;5032141;28;20781;-80
2022/05/12 05:00:15;;;;;;;4.05;1.60;;;16.40;61.20;;;;;;5009061;28;20047;-80
2022/05/12 05:02:42;;;;;;;5.43;1.67;;;16.40;62.00;;;;;;5046239;28;20466;-80
2022/05/12 05:05:10;;;;;;;4.47;1.80;;;16.30;60.80;;;;;;5050142;28;20390;-80
2022/05/12 05:07:35;;;;;;;3.78;1.58;;;16.30;61.10;;;;;;5025825;28;20452;-80
2022/05/12 05:10:02;;;;;;;4.50;1.48;;;16.30;60.90;;;;;;5043378;28;20397;-80
2022/05/12 05:12:28;;;;;;;4.37;1.60;;;16.20;60.90;;;;;;5043828;28;20272;-80
2022/05/12 05:14:54;;;;;;;3.70;1.50;;;16.20;61.00;;;;;;5014168;28;20052;-80
2022/05/12 05:17:22;;;;;;;2.67;1.30;;;16.10;60.90;;;;;;5040342;28;20056;-80
2022/05/12 05:19:47;;;;;;;5.80;1.70;;;16.00;60.90;;;;;;5071350;28;20036;-79
2022/05/12 05:22:13;;;;;;;4.78;1.70;;;16.00;60.90;;;;;;5035955;28;20063;-80
2022/05/12 05:24:39;;;;;;;3.83;1.60;;;16.00;61.40;;;;;;5053151;28;20228;-79
2022/05/12 05:27:06;;;;;;;4.18;1.55;;;15.90;62.10;;;;;;5051776;28;20112;-80
2022/05/12 05:29:32;;;;;;;4.13;1.48;;;15.90;61.60;;;;;;5043455;28;20025;-79
2022/05/12 05:31:58;;;;;;;4.00;1.73;;;15.80;61.70;;;;;;5037959;28;20025;-80
2022/05/12 05:34:23;;;;;;;4.73;1.50;;;15.80;61.80;;;;;;5047176;28;20428;-80
2022/05/12 05:36:49;;;;;;;6.27;1.73;;;15.80;61.90;;;;;;5059217;28;20474;-80
2022/05/12 05:39:22;;;;;;;4.72;1.52;;;15.80;62.20;;;;;;5032974;28;20040;-80
2022/05/12 05:41:49;;;;;;;6.25;1.83;;;15.80;62.90;;;;;;5060464;28;20044;-80
2022/05/12 05:44:15;;;;;;;4.40;1.73;;;15.80;62.80;;;;;;5057698;28;20032;-80
2022/05/12 05:46:41;;;;;;;4.27;2.00;;;15.80;62.50;;;;;;5042445;28;20410;-80
2022/05/12 05:49:06;;;;;;;6.25;1.90;;;15.80;62.50;;;;;;5045372;28;20043;-79
2022/05/12 05:54:16;;;;;;;6.20;1.85;;;15.80;62.70;;;;;;5030961;28;20037;-80
2022/05/12 05:56:43;;;;;;;4.43;1.83;;;15.90;63.00;;;;;;5053668;28;20394;-80
2022/05/12 05:59:09;;;;;;;5.07;1.65;;;15.90;63.00;;;;;;5048948;28;20059;-79
2022/05/12 06:01:35;;;;;;;4.60;1.80;;;15.90;63.10;;;;;;5030344;28;20044;-83
2022/05/12 06:04:00;;;;;;;3.80;1.70;;;16.00;63.10;;;;;;5047545;28;20032;-80
2022/05/12 06:06:26;;;;;;;4.17;1.80;;;16.00;63.00;;;;;;5044643;28;20715;-79
2022/05/12 06:08:52;;;;;;;5.13;1.90;;;16.00;63.20;;;;;;5027791;28;20060;-79
2022/05/12 06:11:18;;;;;;;6.60;2.00;;;16.10;63.10;;;;;;5054263;28;20305;-79
2022/05/12 06:13:47;;;;;;;5.32;1.90;;;16.20;63.30;;;;;;5038858;28;20031;-79
2022/05/12 06:16:14;;;;;;;5.28;2.03;;;16.20;63.30;;;;;;5018740;28;20105;-78
2022/05/12 06:18:41;;;;;;;5.60;2.00;;;16.30;63.20;;;;;;5036722;28;20032;-78
2022/05/12 06:21:09;;;;;;;5.15;2.50;;;16.30;63.20;;;;;;5045034;28;20028;-77
2022/05/12 06:23:35;;;;;;;4.80;1.97;;;16.30;63.20;;;;;;5035571;28;20405;-77
2022/05/12 06:26:01;;;;;;;5.53;2.38;;;16.40;63.30;;;;;;5038817;28;20557;-78
2022/05/12 06:28:28;;;;;;;4.68;2.00;;;16.40;63.40;;;;;;5041417;28;20082;-79
2022/05/12 06:30:54;;;;;;;3.50;1.85;;;16.40;63.40;;;;;;5056577;28;20444;-79
2022/05/12 06:33:20;;;;;;;4.70;1.87;;;16.50;63.60;;;;;;5039178;28;20161;-79
2022/05/12 06:35:47;;;;;;;5.20;1.90;;;16.60;63.60;;;;;;5058487;28;20672;-79
2022/05/12 06:38:13;;;;;;;3.90;1.90;;;16.60;63.40;;;;;;5044828;28;20689;-79
2022/05/12 06:40:39;;;;;;;3.88;2.10;;;16.70;63.40;;;;;;5036894;28;20040;-79
2022/05/12 06:43:07;;;;;;;5.33;1.80;;;16.80;63.40;;;;;;5043428;28;20123;-79
2022/05/12 06:45:33;;;;;;;4.43;1.80;;;16.90;63.40;;;;;;5050969;28;20036;-79
2022/05/12 06:47:59;;;;;;;4.25;1.70;;;17.00;63.20;;;;;;5054784;28;20464;-79
2022/05/12 06:50:28;;;;;;;4.15;1.70;;;17.10;63.20;;;;;;5055398;28;20092;-78
2022/05/12 06:52:53;;;;;;;3.87;1.90;;;17.20;63.30;;;;;;5041254;28;20533;-80
2022/05/12 06:55:20;;;;;;;4.10;2.08;;;17.30;63.00;;;;;;5027684;28;20028;-79
2022/05/12 06:57:47;;;;;;;4.28;2.00;;;17.40;62.80;;;;;;5037828;28;20447;-78
2022/05/12 07:00:16;;;;;;;6.47;1.80;;;17.40;62.70;;;;;;5059543;28;20033;-79
2022/05/12 07:02:44;;;;;;;5.90;1.85;;;17.50;62.50;;;;;;5020051;28;20040;-78
2022/05/12 07:05:12;;;;;;;3.90;1.70;;;17.50;62.20;;;;;;5075334;28;20505;-79
2022/05/12 07:07:38;;;;;;;5.38;1.90;;;17.60;62.50;;;;;;5018422;28;20433;-80
2022/05/12 07:10:05;;;;;;;5.70;2.23;;;17.70;62.60;;;;;;5056006;28;20044;-80
2022/05/12 07:12:31;;;;;;;4.40;1.88;;;17.70;62.80;;;;;;5048285;28;20099;-78
2022/05/12 07:14:58;;;;;;;3.00;1.55;;;17.90;62.90;;;;;;5056028;28;20659;-79
2022/05/12 07:17:24;;;;;;;5.00;1.70;;;18.00;62.80;;;;;;5037075;28;20039;-78
2022/05/12 07:19:50;;;;;;;4.73;1.80;;;18.10;62.90;;;;;;5058061;28;20261;-78
2022/05/12 07:27:45;;;;;;;3.33;1.70;;;18.50;62.40;;;;;;5055195;28;20325;-78
2022/05/12 07:30:11;;;;;;;4.28;1.70;;;18.60;62.10;;;;;;5041225;28;20028;-79
2022/05/12 07:32:37;;;;;;;4.80;2.10;;;18.70;61.90;;;;;;5030591;28;20400;-78
2022/05/12 07:35:05;;;;;;;3.87;2.00;;;18.70;61.80;;;;;;5039693;28;20029;-79
2022/05/12 07:37:31;;;;;;;3.72;1.80;;;18.90;62.00;;;;;;5052260;28;20067;-79
2022/05/12 07:39:57;;;;;;;6.00;1.83;;;19.00;61.80;;;;;;5051382;28;20123;-79
2022/05/12 07:42:22;;;;;;;3.65;1.80;;;19.10;61.80;;;;;;5029805;28;20090;-80
2022/05/12 07:44:48;;;;;;;3.63;1.70;;;19.20;61.50;;;;;;5036883;28;20708;-80
2022/05/12 07:47:13;;;;;;;4.70;1.67;;;19.30;61.40;;;;;;5040674;28;20039;-78
2022/05/12 07:49:40;;;;;;;4.47;1.50;;;19.40;61.70;;;;;;5021650;28;20028;-79
2022/05/12 07:52:08;;;;;;;3.88;1.50;;;19.60;61.90;;;;;;5049294;28;20024;-79
2022/05/12 07:54:35;;;;;;;4.13;1.63;;;19.80;62.20;;;;;;5049975;28;20041;-79
2022/05/12 07:57:01;;;;;;;3.07;1.70;;;20.10;62.50;;;;;;5035101;28;20442;-79
2022/05/12 07:59:31;;;;;;;3.58;1.40;;;20.40;62.50;;;;;;5059976;28;20037;-80
2022/05/12 08:02:00;;;;;;;2.47;1.65;;;20.70;62.60;;;;;;5061758;28;20375;-79
2022/05/12 08:04:27;;;;;;;3.40;1.60;;;21.10;63.10;;;;;;5038051;28;20025;-79
2022/05/12 08:06:53;;;;;;;3.38;1.60;;;21.50;63.30;;;;;;5039963;28;20122;-79
2022/05/12 08:09:19;;;;;;;3.47;1.30;;;22.00;62.70;;;;;;5052512;28;20025;-79
2022/05/12 08:11:45;;;;;;;2.90;1.25;;;22.40;62.40;;;;;;5056009;28;20096;-80
2022/05/12 08:14:11;;;;;;;3.65;1.55;;;22.90;61.90;;;;;;5043937;28;20123;-78
2022/05/12 08:16:37;;;;;;;3.22;1.30;;;23.40;61.50;;;;;;5053366;28;20135;-79
2022/05/12 08:19:03;;;;;;;3.10;1.70;;;23.80;61.30;;;;;;5036773;28;20064;-79
2022/05/12 08:21:30;;;;;;;2.97;1.60;;;24.20;59.50;;;;;;5028557;28;20469;-78
2022/05/12 08:23:55;;;;;;;3.67;1.50;;;24.70;59.30;;;;;;5049840;28;20272;-80
2022/05/12 08:26:22;;;;;;;2.95;1.38;;;25.00;58.60;;;;;;5045040;28;20131;-78
2022/05/12 08:28:50;;;;;;;1.83;1.13;;;25.40;58.00;;;;;;5034116;28;20063;-78
2022/05/12 08:31:17;;;;;;;2.65;1.30;;;25.70;56.60;;;;;;5036653;28;20029;-79
2022/05/12 08:33:42;;;;;;;3.53;1.50;;;25.90;55.00;;;;;;5040050;28;20520;-78
2022/05/12 08:36:10;;;;;;;3.53;1.40;;;26.00;53.90;;;;;;5038166;28;20040;-80
2022/05/12 08:38:40;;;;;;;2.03;1.50;;;26.10;53.30;;;;;;5066243;28;20432;-78
2022/05/12 08:41:16;;;;;;;3.08;1.35;;;26.20;53.40;;;;;;5032642;28;20443;-80
2022/05/12 08:43:45;;;;;;;1.52;1.10;;;26.40;52.60;;;;;;5028427;28;20036;-80
2022/05/12 08:46:19;;;;;;;2.38;1.30;;;26.60;52.40;;;;;;5036797;28;20401;-79
2022/05/12 08:48:47;;;;;;;2.42;1.30;;;26.80;51.50;;;;;;5057440;28;20032;-79
2022/05/12 08:51:17;;;;;;;1.80;1.10;;;26.80;50.70;;;;;;5024365;28;20063;-79
2022/05/12 08:53:54;;;;;;;3.67;1.60;;;26.80;49.10;;;;;;5048228;28;20184;-79
2022/05/12 08:56:22;;;;;;;3.72;1.48;;;26.70;47.90;;;;;;5051738;28;20063;-78
2022/05/12 08:58:49;;;;;;;2.60;1.60;;;26.70;49.10;;;;;;5032856;28;20532;-79
2022/05/12 09:01:36;;;;;;;2.78;1.42;;;26.70;49.40;;;;;;5056478;28;20040;-79
2022/05/12 09:04:27;;;;;;;1.70;1.20;;;26.70;48.00;;;;;;5041645;28;20032;-78
2022/05/12 09:07:03;;;;;;;3.28;1.40;;;26.80;47.20;;;;;;5031390;28;20040;-78
2022/05/12 09:09:47;;;;;;;2.13;1.30;;;26.80;48.20;;;;;;5060746;28;20488;-79
2022/05/12 09:12:21;;;;;;;2.70;1.38;;;26.80;46.60;;;;;;5033122;28;20400;-79
2022/05/12 09:15:00;;;;;;;2.40;1.33;;;26.80;46.90;;;;;;5068609;28;20109;-79
2022/05/12 09:17:35;;;;;;;3.43;1.20;;;26.60;45.40;;;;;;5061272;28;20056;-80
2022/05/12 09:20:01;;;;;;;2.92;1.30;;;26.50;45.60;;;;;;5042146;28;20029;-80
2022/05/12 09:22:29;;;;;;;3.03;1.20;;;26.40;46.80;;;;;;5033651;28;20444;-79
2022/05/12 09:24:56;;;;;;;3.17;1.43;;;26.40;46.90;;;;;;5040789;28;20587;-79
2022/05/12 09:27:36;;;;;;;3.22;1.40;;;26.40;47.40;;;;;;5027192;28;20036;-79
2022/05/12 09:30:04;;;;;;;2.72;1.40;;;26.60;45.90;;;;;;5025877;28;20469;-80
2022/05/12 09:32:33;;;;;;;1.98;1.05;;;26.70;47.20;;;;;;5060000;28;20028;-79
2022/05/12 09:35:08;;;;;;;3.50;1.40;;;26.90;46.70;;;;;;5044085;28;20161;-79
2022/05/12 09:37:36;;;;;;;2.87;1.30;;;27.00;45.30;;;;;;5033328;28;20382;-78
2022/05/12 09:40:16;;;;;;;3.25;1.10;;;27.00;45.10;;;;;;5063334;28;20032;-79
2022/05/12 09:42:48;;;;;;;1.83;1.23;;;27.00;43.00;;;;;;5036671;28;20033;-79
2022/05/12 09:45:25;;;;;;;1.80;1.17;;;26.90;44.30;;;;;;5060445;28;20086;-80
2022/05/12 09:48:18;;;;;;;2.35;1.33;;;26.80;44.00;;;;;;5025972;28;20134;-80
2022/05/12 09:50:45;;;;;;;1.80;1.13;;;26.80;43.40;;;;;;5057333;28;20099;-79
2022/05/12 09:53:13;;;;;;;2.38;1.50;;;26.90;45.40;;;;;;5023845;28;20028;-80
2022/05/12 09:55:56;;;;;;;2.88;1.40;;;27.00;45.40;;;;;;5047672;28;20423;-80
2022/05/12 09:58:38;;;;;;;4.07;1.55;;;27.30;44.20;;;;;;5031111;28;20028;-80
2022/05/12 10:01:24;;;;;;;2.03;1.38;;;27.40;44.20;;;;;;5042882;28;20590;-79
2022/05/12 10:09:31;;;;;;;3.25;1.30;;;27.40;42.80;;;;;;5035762;28;20096;-80
2022/05/12 10:12:08;;;;;;;1.95;1.20;;;27.40;42.20;;;;;;5040803;28;20068;-79
2022/05/12 10:14:48;;;;;;;1.55;1.20;;;27.50;42.90;;;;;;5032757;28;20078;-79
2022/05/12 10:17:20;;;;;;;1.43;1.10;;;27.60;43.90;;;;;;5045288;28;20496;-80
2022/05/12 10:19:47;;;;;;;1.98;1.20;;;27.80;43.80;;;;;;5055306;28;20032;-78
2022/05/12 10:22:18;;;;;;;2.70;1.38;;;28.10;43.60;;;;;;5037659;28;20032;-78
2022/05/12 10:25:06;;;;;;;2.10;1.27;;;28.30;41.70;;;;;;5037217;28;20028;-80
2022/05/12 10:27:49;;;;;;;2.30;1.30;;;28.30;40.70;;;;;;5048406;28;20029;-79
2022/05/12 10:30:33;;;;;;;2.30;1.40;;;28.30;39.80;;;;;;5050641;28;20195;-82
2022/05/12 10:33:30;;;;;;;2.65;1.40;;;28.10;39.20;;;;;;5046314;28;20039;-80
2022/05/12 10:36:04;;;;;;;2.75;1.40;;;28.00;39.20;;;;;;5050460;28;20135;-80
2022/05/12 10:39:09;;;;;;;2.55;1.50;;;27.70;39.30;;;;;;5032633;28;20037;-79
2022/05/12 10:41:48;;;;;;;3.22;1.52;;;27.50;38.50;;;;;;5056368;28;20036;-79
2022/05/12 10:44:27;;;;;;;2.27;1.40;;;27.20;39.00;;;;;;5059796;28;20381;-80
2022/05/12 10:47:06;;;;;;;3.63;1.38;;;26.80;38.80;;;;;;5038422;28;20202;-80
2022/05/12 10:49:51;;;;;;;2.72;1.80;;;26.60;39.10;;;;;;5047357;28;20496;-78
2022/05/12 10:52:28;;;;;;;2.60;1.95;;;26.40;39.60;;;;;;5058562;28;20032;-79
2022/05/12 10:55:18;;;;;;;3.25;1.67;;;26.40;40.80;;;;;;5018787;28;20229;-79
2022/05/12 10:58:00;;;;;;;2.93;1.70;;;26.50;40.80;;;;;;5037600;28;20041;-80
2022/05/12 11:00:30;;;;;;;5.00;1.60;;;26.70;41.00;;;;;;5027983;28;20028;-79
2022/05/12 11:03:06;;;;;;;2.60;1.50;;;26.80;41.00;;;;;;5018846;28;20552;-79
2022/05/12 11:05:40;;;;;;;3.85;1.58;;;27.00;40.80;;;;;;5048182;28;20033;-80
2022/05/12 11:08:17;;;;;;;1.92;1.40;;;27.20;41.20;;;;;;5061304;28;20045;-79
2022/05/12 11:10:51;;;;;;;2.10;1.50;;;27.40;40.80;;;;;;5018357;28;20658;-78
2022/05/12 11:13:28;;;;;;;3.92;1.67;;;27.50;40.10;;;;;;5039658;28;20646;-80
2022/05/12 11:16:21;;;;;;;2.50;1.50;;;27.70;40.10;;;;;;5029178;28;20040;-79
2022/05/12 11:18:52;;;;;;;2.55;1.77;;;27.90;40.00;;;;;;5031819;28;20238;-80
2022/05/12 11:21:25;;;;;;;3.17;1.77;;;28.00;39.90;;;;;;5041293;28;20366;-78
2022/05/12 11:24:10;;;;;;;3.53;1.70;;;28.10;39.60;;;;;;5048285;28;20036;-79
2022/05/12 11:26:45;;;;;;;2.08;1.52;;;28.20;39.30;;;;;;5043154;28;20028;-78
2022/05/12 11:30:02;;;;;;;3.38;1.95;;;28.20;39.70;;;;;;5054768;28;20048;-79
2022/05/12 11:32:47;;;;;;;3.30;1.95;;;28.30;38.80;;;;;;5025348;28;20037;-79
2022/05/12 11:35:18;;;;;;;3.78;2.00;;;28.30;38.80;;;;;;5040324;28;20485;-79
2022/05/12 11:37:44;;;;;;;3.43;1.70;;;28.20;38.50;;;;;;5040966;28;20100;-79
2022/05/12 11:40:49;;;;;;;3.30;1.88;;;28.20;38.90;;;;;;5035184;28;20043;-78
2022/05/12 11:46:39;;;;;;;4.00;2.33;;;28.40;38.30;;;;;;5062966;28;20512;-79
2022/05/12 11:49:11;;;;;;;3.80;2.40;;;28.30;36.70;;;;;;5052174;28;20037;-80
2022/05/12 11:51:40;;;;;;;4.20;2.40;;;28.10;36.80;;;;;;5046435;28;20040;-80
2022/05/12 11:54:39;;;;;;;3.45;2.20;;;28.00;37.30;;;;;;5063148;28;20117;-78
2022/05/12 11:57:25;;;;;;;3.38;1.83;;;28.00;36.90;;;;;;5037067;28;20520;-79
2022/05/12 11:59:54;;;;;;;2.80;1.93;;;28.00;37.30;;;;;;5060318;28;20066;-79
2022/05/12 12:02:29;;;;;;;3.65;1.80;;;28.00;37.50;;;;;;5044148;28;20459;-80
2022/05/12 12:05:04;;;;;;;4.70;1.80;;;27.90;36.90;;;;;;5050747;28;20596;-80
2022/05/12 12:07:30;;;;;;;2.70;1.77;;;27.90;37.20;;;;;;5043979;28;20036;-80
2022/05/12 12:10:15;;;;;;;2.60;1.60;;;27.90;37.20;;;;;;5059452;28;20043;-79
2022/05/12 12:12:40;;;;;;;3.35;1.60;;;27.90;37.60;;;;;;5041352;28;20032;-80
2022/05/12 12:15:30;;;;;;;2.90;1.40;;;27.90;38.00;;;;;;5057005;28;20621;-78
2022/05/12 12:17:59;;;;;;;2.50;1.33;;;28.00;37.90;;;;;;5076722;28;20238;-81
2022/05/12 12:20:33;;;;;;;2.63;1.40;;;28.20;37.60;;;;;;5040845;28;20037;-79
2022/05/12 12:23:26;;;;;;;2.15;1.20;;;28.40;37.10;;;;;;5055177;28;20264;-80
2022/05/12 12:26:10;;;;;;;1.55;1.23;;;28.60;36.70;;;;;;5058292;28;20566;-79
2022/05/12 12:28:59;;;;;;;2.07;1.40;;;28.80;37.10;;;;;;5042374;28;20082;-79
2022/05/12 12:31:37;;;;;;;2.75;1.35;;;29.00;35.70;;;;;;5053932;28;20040;-81
2022/05/12 12:34:15;;;;;;;3.00;1.20;;;29.10;36.60;;;;;;5061383;28;20040;-80
2022/05/12 12:36:49;;;;;;;1.90;1.27;;;29.30;35.70;;;;;;5033303;28;20048;-79
2022/05/12 12:39:48;;;;;;;2.25;1.38;;;29.60;35.90;;;;;;5065154;28;20056;-80
2022/05/12 12:42:20;;;;;;;2.17;1.43;;;29.80;35.30;;;;;;5041116;28;20094;-79
2022/05/12 12:44:58;;;;;;;2.47;1.20;;;30.10;35.70;;;;;;5019080;28;20036;-81
2022/05/12 12:47:55;;;;;;;3.38;1.40;;;30.20;34.40;;;;;;5040538;28;20378;-79
2022/05/12 12:50:43;;;;;;;2.22;1.35;;;30.30;33.70;;;;;;5074062;28;20035;-81
2022/05/12 12:56:36;;;;;;;2.20;1.40;;;30.40;33.50;;;;;;5007147;28;20044;-80
2022/05/12 12:59:15;;;;;;;3.45;1.70;;;30.40;33.50;;;;;;5067850;28;20036;-79
2022/05/12 13:01:45;;;;;;;2.80;1.10;;;30.30;33.10;;;;;;5039644;28;20029;-79
2022/05/12 13:04:11;;;;;;;2.08;1.27;;;30.20;33.60;;;;;;5046424;28;20086;-80
2022/05/12 13:06:37;;;;;;;2.22;1.33;;;30.20;34.00;;;;;;5029866;28;20083;-81
2022/05/12 13:09:07;;;;;;;1.93;1.30;;;30.10;33.80;;;;;;5025815;28;20119;-82
2022/05/12 13:11:36;;;;;;;2.00;1.30;;;30.10;33.60;;;;;;5073762;28;20432;-81
2022/05/12 13:14:02;;;;;;;2.47;1.50;;;30.10;33.20;;;;;;5047702;28;20533;-79
2022/05/12 13:16:33;;;;;;;2.63;1.70;;;30.10;32.90;;;;;;5022988;28;20044;-79
2022/05/12 13:19:01;;;;;;;2.85;1.40;;;30.10;32.40;;;;;;5041978;28;20493;-81
2022/05/12 13:21:36;;;;;;;2.07;1.30;;;30.10;32.70;;;;;;5038891;28;20460;-79
2022/05/12 13:24:22;;;;;;;2.38;1.20;;;29.90;31.80;;;;;;5059437;28;20024;-82
2022/05/12 13:26:49;;;;;;;1.95;1.20;;;29.80;31.00;;;;;;5027890;28;20045;-80
2022/05/12 13:29:39;;;;;;;1.75;1.30;;;29.70;32.20;;;;;;5044212;28;20039;-79